AirNav   Pilot Hours Calculator
 
 513 users online  

I40 Richard Downing Airport
Coshocton, Ohio, USA

GOING TO COSHOCTON?


FAA INFORMATION EFFECTIVE 05 DECEMBER 2019

Location

FAA Identifier: I40
Lat/Long: 40-18-36.6000N 081-51-08.7000W
40-18.610000N 081-51.145000W
40.3101667,-81.8524167
(estimated)
Elevation: 978.9 ft. / 298.4 m (surveyed)
Variation: 07W (2000)
From city: 3 miles N of COSHOCTON, OH
Time zone: UTC -5 (UTC -4 during Daylight Saving Time)
Zip code: 43812

Airport Operations

Airport use: Open to the public
Control tower: no
ARTCC: INDIANAPOLIS CENTER
FSS: CLEVELAND FLIGHT SERVICE STATION
NOTAMs facility: CLE (NOTAM-D service available)
Attendance: MAY-OCT 0900-1700, NOV-APR 0900-1700
Wind indicator: lighted
Segmented circle: no
Lights: ACTVT PAPI RWY 04; MIRL RWY 04/22 - 122.9. PAPI RWYS 22 OPER CONSLY.
Beacon: white-green (lighted land airport)
Operates sunset to sunrise.

Airport Communications

CTAF/UNICOM: 123.0
WX AWOS-3: 118.875 (740-295-7370)
WX AWOS-3 at 10G (14 nm N): 128.325 (330-674-6279)
  • APCH/DEP SVC PRVDD BY INDIANAPOLIS ARTCC ON FREQS 124.45/370.9 (ZANESVILLE RCAG).

Nearby radio navigation aids

VOR radial/distance  VOR name  Freq  Var
CTWr293/17.9NEWCOMERSTOWN VOR/DME111.8007W
ZZVr011/22.2ZANESVILLE VOR/DME114.9506W
BSVr221/32.2BRIGGS VOR/DME112.4004W
APEr080/35.0APPLETON VORTAC116.7006W

 
NDB name  Hdg/Dist  Freq  Var  ID
CADIZ284/38.723907WCFX -.-. ..-. -..-

Airport Services

Fuel available: 100LL JET-A+
Parking: hangars and tiedowns
Airframe service: MAJOR
Powerplant service: MAJOR
Bottled oxygen: NONE
Bulk oxygen: NONE

Runway Information

Runway 4/22

Dimensions: 5001 x 75 ft. / 1524 x 23 m
Surface: asphalt, in good condition
Weight bearing capacity: 
Single wheel: 30.0
Double wheel: 35.0
Runway edge lights: medium intensity
RUNWAY 4  RUNWAY 22
Latitude: 40-18.282397N40-18.936983N
Longitude: 081-51.470680W081-50.817750W
Elevation: 973.1 ft.978.6 ft.
Traffic pattern: leftleft
Runway heading: 044 magnetic, 037 true224 magnetic, 217 true
Markings: nonprecision, in good conditionnonprecision, in good condition
Visual slope indicator: 2-light PAPI on left (3.50 degrees glide path)4-light PAPI on right (3.00 degrees glide path)
PAPI RWY 22, UNUSBL BYD 8 DEG LEFT OF COURSE.
Runway end identifier lights: noyes
Touchdown point: yes, no lightsyes, no lights
Obstructions: 90 ft. trees, 2495 ft. from runway, 75 ft. left of centerline, 25:1 slope to clear
RWY 04 APCH SLOPE TO THRESHOLD 0:1 DUE TO +2 TO +4 BRUSH 180 FM RWY 04 EXTENDING TO THLD 100 L
55 ft. trees, 1375 ft. from runway, 75 ft. right of centerline, 21:1 slope to clear

Airport Ownership and Management from official FAA records

Ownership: Publicly-owned
Owner: COSHOCTON CO REG ARPT AUTH
24569 AIRPORT RD
COSHOCTON, OH 43812
Phone 614-824-4382
Manager: BETHEL R. TOLER
24569 AIRPORT RD
COSHOCTON, OH 43812
Phone 740-622-2252
ADDL CONTACT INFORMATION: BETHELTOLER@COSHOCTONCOUNTY.NET

Airport Operational Statistics

Aircraft based on the field: 20
Single engine airplanes: 16
Multi engine airplanes: 3
Helicopters: 1
    
Aircraft operations: avg 54/day *
77% local general aviation
21% transient general aviation
2% air taxi
<1% military
* for 12-month period ending 29 November 2014

Additional Remarks

DEER, BIRDS AND OTHER WILDLIFE ON & INVOF ARPT.
GCO 121.725 INDIANAPOLIS CENTER.
FOR CD IF UNA VIA GCO CTC INDIANAPOLIS ARTCC AT 317-247-2411.

Instrument Procedures

NOTE: All procedures below are presented as PDF files. If you need a reader for these files, you should download the free Adobe Reader.

NOT FOR NAVIGATION. Please procure official charts for flight.
FAA instrument procedures published for use from 05 December 2019 at 0900Z to 02 January 2020 at 0900Z.

 
IAPs - Instrument Approach Procedures
RNAV (GPS) RWY 22   download (217KB)
VOR-A   download (166KB)
NOTE: Special Take-Off Minimums/Departure Procedures apply   download (242KB)

Other nearby airports with instrument procedures:

10G - Holmes County Airport (14 nm N)
KPHD - Harry Clever Field Airport (22 nm NE)
KZZV - Zanesville Municipal Airport (22 nm S)
KCDI - Cambridge Municipal Airport (24 nm SE)
4I3 - Knox County Airport (31 nm W)
 
Loc | Ops | Rwys | IFR | FBO | Links
Com | Nav | Svcs | Stats | Notes
Area around I40 (Richard Downing Airport)
 
Road maps at: MapQuest Bing Google
 
Aerial photo
WARNING: Photo may not be current or correct
Aerial photo of I40 (Richard Downing Airport)
Photo courtesy of AirNav, LLC
Photo taken 09-May-2010

Do you have a better or more recent aerial photo of Richard Downing Airport that you would like to share? If so, please send us your photo.

 
Sectional chart

 
Airport distance calculator
Flying to Richard Downing Airport? Find the distance to fly.

From to I40

Sunrise and sunset
Times for 12-Dec-2019
 Local
(UTC-5)
 Zulu
(UTC)
Morning civil twilight07:1112:11
Sunrise07:4212:42
Sunset17:0022:00
Evening civil twilight17:3122:31

Current date and time
Zulu (UTC)  12-Dec-2019 12:21:19
Local (UTC-5)  12-Dec-2019 07:21:19
 
METAR
KZZV 
22nm S 
121153Z AUTO 00000KT 8SM CLR M08/M11 A3059 RMK AO2 SLP373 I1000 I6000 T10831106 11061 21089 50003
KPHD 
22nm NE 
121153Z AUTO 00000KT 9SM CLR M09/M12 A3062 RMK AO2 SLP384 I1000 I6000 T10941117 11083 21100 53007
KCDI 
24nm SE 
121159Z AUTO 00000KT 10SM CLR M09/M10 A3061 RMK AO2 T10951101 11070 21096
K4I3 
31nm W 
121203Z AUTO 00000KT 10SM CLR M09/M11 A3058 RMK AO2
KVTA 
33nm SW 
121154Z AUTO 00000KT 7SM CLR M08/M12 A3059 RMK AO2 SLP371 I1000 I6000 T10831117 11078 21089 51002
KBJJ 
33nm N 
121156Z AUTO 16006KT 9SM CLR M08/M11 A3058 RMK AO2 SLP376 I6000 T10831106 11083 21111 51008
KCAK 
41nm NE 
121151Z 16006KT 6SM BR SCT200 M08/M11 A3058 RMK AO2 SLP374 T10831106 11072 21094 51009
KMFD 
43nm NW 
121152Z 15010KT 9SM CLR M08/M11 A3055 RMK AO2 SLP365 7//// T10781106 11072 21100 51004 $
TAF
KZZV 
22nm S 
121121Z 1212/1312 VRB05KT P6SM BKN250
NOTAMs
Click for the latest NOTAMs
NOTAMs are issued by the DoD/FAA and will open in a separate window not controlled by AirNav.

 

 
 

FBO, Fuel Providers, and Aircraft Ground Support

  
 Business Name 
 
 Contact 
 
 Services / Description 
 
Fuel Prices
 
Comments
  
 Richard Downing Airport
UNICOM 123.00
740-622-2252
[web site]
[email]
We have one of the most lowest priced 100LL and JetA/Prist Fuel available. 100LL fuel discount for Cash.
 
EPIC Card   Courtesy car   FAA Authorized Chart Agent   Wireless Internet Access (WiFi)  
 
More info about Richard Downing Airport
EPIC
100LL Jet A
FS $4.87 $4.17 
GUARANTEED
 
   5 read write
FS=Full service
Update Fuel Prices
 

Where to Eat: Catering, Restaurants, Food shops

  
 Business Name 
 
 Contact 
 
 Services / Description 
 
Distance
 
Comments
  
 Adams Runway Grill
740-622-2252 Restaurant

More info about Adams Runway Grill
on airport  
   write
 

Would you like to see your business listed on this page?

 If your business provides an interesting product or service to pilots, flight crews, aircraft, or users of the Richard Downing Airport, you should consider listing it here.  To start the listing process, click on the button below
 
Add a business
 

Other Pages about Richard Downing Airport

www.coshoctoncountyairport.com
 
Update a link
 
Copyright © AirNav, LLC. All rights reserved. Privacy Policy  Contact